sensor_id;sensor_type;location;lat;lon;timestamp;pressure;altitude;pressure_sealevel;temperature
74915;BMP280;63475;45.140;-75.616;2023-02-28T00:00:22;99967.66;;;-4.04
74915;BMP280;63475;45.140;-75.616;2023-02-28T00:01:24;99961.41;;;-4.03
74915;BMP280;63475;45.140;-75.616;2023-02-28T00:02:25;99950.94;;;-4.07
74915;BMP280;63475;45.140;-75.616;2023-02-28T00:03:26;99959.31;;;-4.10
74915;BMP280;63475;45.140;-75.616;2023-02-28T00:04:27;99957.03;;;-4.11
74915;BMP280;63475;45.140;-75.616;2023-02-28T00:05:28;99947.44;;;-4.11
74915;BMP280;63475;45.140;-75.616;2023-02-28T00:06:29;99930.28;;;-4.24
74915;BMP280;63475;45.140;-75.616;2023-02-28T00:07:31;99936.81;;;-4.18
74915;BMP280;63475;45.140;-75.616;2023-02-28T00:08:32;99926.44;;;-4.09
74915;BMP280;63475;45.140;-75.616;2023-02-28T00:09:33;99936.63;;;-4.04
74915;BMP280;63475;45.140;-75.616;2023-02-28T00:10:34;99917.31;;;-4.15
74915;BMP280;63475;45.140;-75.616;2023-02-28T00:11:36;99907.28;;;-4.17
74915;BMP280;63475;45.140;-75.616;2023-02-28T00:12:38;99898.97;;;-4.22
74915;BMP280;63475;45.140;-75.616;2023-02-28T00:13:42;99920.38;;;-4.13
74915;BMP280;63475;45.140;-75.616;2023-02-28T00:14:43;99929.66;;;-4.12
74915;BMP280;63475;45.140;-75.616;2023-02-28T00:15:44;99894.25;;;-4.29
74915;BMP280;63475;45.140;-75.616;2023-02-28T00:16:45;99914.59;;;-4.10
74915;BMP280;63475;45.140;-75.616;2023-02-28T00:17:46;99897.28;;;-4.18
74915;BMP280;63475;45.140;-75.616;2023-02-28T00:18:48;99911.06;;;-4.06
74915;BMP280;63475;45.140;-75.616;2023-02-28T00:19:49;99905.47;;;-4.16
74915;BMP280;63475;45.140;-75.616;2023-02-28T00:20:50;99903.19;;;-4.09
74915;BMP280;63475;45.140;-75.616;2023-02-28T00:21:51;99899.97;;;-4.15
74915;BMP280;63475;45.140;-75.616;2023-02-28T00:22:53;99902.56;;;-4.15
74915;BMP280;63475;45.140;-75.616;2023-02-28T00:23:54;99892.41;;;-4.20
74915;BMP280;63475;45.140;-75.616;2023-02-28T00:24:55;99894.38;;;-4.17
74915;BMP280;63475;45.140;-75.616;2023-02-28T00:25:56;99885.53;;;-4.16
74915;BMP280;63475;45.140;-75.616;2023-02-28T00:26:57;99892.84;;;-4.18
74915;BMP280;63475;45.140;-75.616;2023-02-28T00:27:58;99861.13;;;-4.36
74915;BMP280;63475;45.140;-75.616;2023-02-28T00:28:59;99886.03;;;-4.22
74915;BMP280;63475;45.140;-75.616;2023-02-28T00:30:00;99883.44;;;-4.22
74915;BMP280;63475;45.140;-75.616;2023-02-28T00:31:01;99879.47;;;-4.20
74915;BMP280;63475;45.140;-75.616;2023-02-28T00:32:02;99878.09;;;-4.17
74915;BMP280;63475;45.140;-75.616;2023-02-28T00:33:03;99876.13;;;-4.20
74915;BMP280;63475;45.140;-75.616;2023-02-28T00:34:04;99855.34;;;-4.33
74915;BMP280;63475;45.140;-75.616;2023-02-28T00:35:06;99863.84;;;-4.32
74915;BMP280;63475;45.140;-75.616;2023-02-28T00:36:09;99845.06;;;-4.41
74915;BMP280;63475;45.140;-75.616;2023-02-28T00:37:11;99828.34;;;-4.44
74915;BMP280;63475;45.140;-75.616;2023-02-28T00:38:13;99852.13;;;-4.30
74915;BMP280;63475;45.140;-75.616;2023-02-28T00:39:15;99845.31;;;-4.25
74915;BMP280;63475;45.140;-75.616;2023-02-28T00:40:16;99844.69;;;-4.22
74915;BMP280;63475;45.140;-75.616;2023-02-28T00:41:17;99833.59;;;-4.32
74915;BMP280;63475;45.140;-75.616;2023-02-28T00:42:18;99834.66;;;-4.33
74915;BMP280;63475;45.140;-75.616;2023-02-28T00:43:19;99822.81;;;-4.34
74915;BMP280;63475;45.140;-75.616;2023-02-28T00:44:20;99827.53;;;-4.27
74915;BMP280;63475;45.140;-75.616;2023-02-28T00:45:21;99815.94;;;-4.30
74915;BMP280;63475;45.140;-75.616;2023-02-28T00:46:22;99813.38;;;-4.30
74915;BMP280;63475;45.140;-75.616;2023-02-28T00:47:23;99808.25;;;-4.38
74915;BMP280;63475;45.140;-75.616;2023-02-28T00:48:24;99785.19;;;-4.52
74915;BMP280;63475;45.140;-75.616;2023-02-28T00:49:26;99808.69;;;-4.36
74915;BMP280;63475;45.140;-75.616;2023-02-28T00:50:27;99801.88;;;-4.41
74915;BMP280;63475;45.140;-75.616;2023-02-28T00:51:28;99677.28;;;-5.23
74915;BMP280;63475;45.140;-75.616;2023-02-28T00:52:29;99788.22;;;-4.50
74915;BMP280;63475;45.140;-75.616;2023-02-28T00:53:31;99798.22;;;-4.40
74915;BMP280;63475;45.140;-75.616;2023-02-28T00:54:33;99783.06;;;-4.50
74915;BMP280;63475;45.140;-75.616;2023-02-28T00:55:34;99794.56;;;-4.39
74915;BMP280;63475;45.140;-75.616;2023-02-28T00:56:35;99796.53;;;-4.36
74915;BMP280;63475;45.140;-75.616;2023-02-28T00:57:36;99792.28;;;-4.40
74915;BMP280;63475;45.140;-75.616;2023-02-28T00:58:37;99785.63;;;-4.41
74915;BMP280;63475;45.140;-75.616;2023-02-28T00:59:38;99778.78;;;-4.46
74915;BMP280;63475;45.140;-75.616;2023-02-28T01:00:39;99782.72;;;-4.40
74915;BMP280;63475;45.140;-75.616;2023-02-28T01:01:39;99782.72;;;-4.40
74915;BMP280;63475;45.140;-75.616;2023-02-28T01:02:41;99770.56;;;-4.39
74915;BMP280;63475;45.140;-75.616;2023-02-28T01:03:42;99780.75;;;-4.43
74915;BMP280;63475;45.140;-75.616;2023-02-28T01:04:42;99779.06;;;-4.39
74915;BMP280;63475;45.140;-75.616;2023-02-28T01:05:44;99753.59;;;-4.58
74915;BMP280;63475;45.140;-75.616;2023-02-28T01:06:45;99770.56;;;-4.48
74915;BMP280;63475;45.140;-75.616;2023-02-28T01:07:46;99739.81;;;-4.62
74915;BMP280;63475;45.140;-75.616;2023-02-28T01:08:47;99753.13;;;-4.51
74915;BMP280;63475;45.140;-75.616;2023-02-28T01:09:48;99764.19;;;-4.42
74915;BMP280;63475;45.140;-75.616;2023-02-28T01:10:49;99750.09;;;-4.53
74915;BMP280;63475;45.140;-75.616;2023-02-28T01:11:50;99761.31;;;-4.49
74915;BMP280;63475;45.140;-75.616;2023-02-28T01:12:51;99762.06;;;-4.48
74915;BMP280;63475;45.140;-75.616;2023-02-28T01:13:52;99749.38;;;-4.62
74915;BMP280;63475;45.140;-75.616;2023-02-28T01:14:53;99762.69;;;-4.51
74915;BMP280;63475;45.140;-75.616;2023-02-28T01:15:56;99737.50;;;-4.63
74915;BMP280;63475;45.140;-75.616;2023-02-28T01:16:57;99749.47;;;-4.50
74915;BMP280;63475;45.140;-75.616;2023-02-28T01:17:58;99751.28;;;-4.50
74915;BMP280;63475;45.140;-75.616;2023-02-28T01:18:59;99749.47;;;-4.50
74915;BMP280;63475;45.140;-75.616;2023-02-28T01:20:00;99754.50;;;-4.53
74915;BMP280;63475;45.140;-75.616;2023-02-28T01:21:07;99758.91;;;-4.54
74915;BMP280;63475;45.140;-75.616;2023-02-28T01:22:08;99746.00;;;-4.63
74915;BMP280;63475;45.140;-75.616;2023-02-28T01:23:09;99724.97;;;-4.73
74915;BMP280;63475;45.140;-75.616;2023-02-28T01:24:10;99721.75;;;-4.70
74915;BMP280;63475;45.140;-75.616;2023-02-28T01:25:11;99751.47;;;-4.55
74915;BMP280;63475;45.140;-75.616;2023-02-28T01:26:22;99747.81;;;-4.54
74915;BMP280;63475;45.140;-75.616;2023-02-28T01:27:23;99729.19;;;-4.69
74915;BMP280;63475;45.140;-75.616;2023-02-28T01:28:24;99729.66;;;-4.75
74915;BMP280;63475;45.140;-75.616;2023-02-28T01:29:25;99757.72;;;-4.57
74915;BMP280;63475;45.140;-75.616;2023-02-28T01:30:27;99751.34;;;-4.59
74915;BMP280;63475;45.140;-75.616;2023-02-28T01:31:28;99737.50;;;-4.63
74915;BMP280;63475;45.140;-75.616;2023-02-28T01:32:29;99754.06;;;-4.55
74915;BMP280;63475;45.140;-75.616;2023-02-28T01:33:30;99745.38;;;-4.51
74915;BMP280;63475;45.140;-75.616;2023-02-28T01:34:31;99754.38;;;-4.57
74915;BMP280;63475;45.140;-75.616;2023-02-28T01:35:35;99745.88;;;-4.58
74915;BMP280;63475;45.140;-75.616;2023-02-28T01:36:36;99756.50;;;-4.59
74915;BMP280;63475;45.140;-75.616;2023-02-28T01:37:37;99753.47;;;-4.61
74915;BMP280;63475;45.140;-75.616;2023-02-28T01:38:38;99750.91;;;-4.70
74915;BMP280;63475;45.140;-75.616;2023-02-28T01:39:39;99729.06;;;-4.81
74915;BMP280;63475;45.140;-75.616;2023-02-28T01:40:40;99722.84;;;-4.80
74915;BMP280;63475;45.140;-75.616;2023-02-28T01:41:41;99758.19;;;-4.63
74915;BMP280;63475;45.140;-75.616;2023-02-28T01:42:43;99753.31;;;-4.65
74915;BMP280;63475;45.140;-75.616;2023-02-28T01:46:18;99757.25;;;-4.59
74915;BMP280;63475;45.140;-75.616;2023-02-28T01:47:19;99756.19;;;-4.58
74915;BMP280;63475;45.140;-75.616;2023-02-28T01:48:33;99761.38;;;-4.58
74915;BMP280;63475;45.140;-75.616;2023-02-28T01:49:35;99759.84;;;-4.59
74915;BMP280;63475;45.140;-75.616;2023-02-28T01:50:40;99755.31;;;-4.62
74915;BMP280;63475;45.140;-75.616;2023-02-28T01:51:48;99762.91;;;-4.65
74915;BMP280;63475;45.140;-75.616;2023-02-28T01:52:56;99758.81;;;-4.66
74915;BMP280;63475;45.140;-75.616;2023-02-28T01:54:03;99734.69;;;-4.79
74915;BMP280;63475;45.140;-75.616;2023-02-28T01:55:07;99735.56;;;-4.75
74915;BMP280;63475;45.140;-75.616;2023-02-28T01:56:10;99757.13;;;-4.62
74915;BMP280;63475;45.140;-75.616;2023-02-28T01:57:16;99748.59;;;-4.63
74915;BMP280;63475;45.140;-75.616;2023-02-28T01:58:19;99748.31;;;-4.61
74915;BMP280;63475;45.140;-75.616;2023-02-28T01:59:29;99735.56;;;-4.75
74915;BMP280;63475;45.140;-75.616;2023-02-28T02:00:33;99727.56;;;-4.82
74915;BMP280;63475;45.140;-75.616;2023-02-28T02:01:34;99718.16;;;-4.87
74915;BMP280;63475;45.140;-75.616;2023-02-28T02:02:36;99741.78;;;-4.67
74915;BMP280;63475;45.140;-75.616;2023-02-28T02:03:38;99752.13;;;-4.67
74915;BMP280;63475;45.140;-75.616;2023-02-28T02:05:03;99738.31;;;-4.71
74915;BMP280;63475;45.140;-75.616;2023-02-28T02:06:03;99719.72;;;-4.94
74915;BMP280;63475;45.140;-75.616;2023-02-28T02:07:04;99711.81;;;-4.98
74915;BMP280;63475;45.140;-75.616;2023-02-28T02:08:09;99750.31;;;-4.75
74915;BMP280;63475;45.140;-75.616;2023-02-28T02:09:11;99733.66;;;-4.87
74915;BMP280;63475;45.140;-75.616;2023-02-28T02:10:20;99753.97;;;-4.76
74915;BMP280;63475;45.140;-75.616;2023-02-28T02:11:23;99757.47;;;-4.72
74915;BMP280;63475;45.140;-75.616;2023-02-28T02:12:43;99733.34;;;-4.85
74915;BMP280;63475;45.140;-75.616;2023-02-28T02:15:43;99739.09;;;-4.79
74915;BMP280;63475;45.140;-75.616;2023-02-28T02:17:57;99726.94;;;-4.79
74915;BMP280;63475;45.140;-75.616;2023-02-28T02:19:07;99717.06;;;-4.77
74915;BMP280;63475;45.140;-75.616;2023-02-28T02:22:06;99722.72;;;-4.83
74915;BMP280;63475;45.140;-75.616;2023-02-28T02:36:34;99734.91;;;-4.93
74915;BMP280;63475;45.140;-75.616;2023-02-28T02:37:41;99699.28;;;-5.17
74915;BMP280;63475;45.140;-75.616;2023-02-28T02:42:04;99735.78;;;-4.89
74915;BMP280;63475;45.140;-75.616;2023-02-28T02:43:20;99738.38;;;-4.89
74915;BMP280;63475;45.140;-75.616;2023-02-28T02:46:48;99735.66;;;-4.92
74915;BMP280;63475;45.140;-75.616;2023-02-28T02:47:50;99736.28;;;-4.95
74915;BMP280;63475;45.140;-75.616;2023-02-28T02:48:54;99735.78;;;-4.89
74915;BMP280;63475;45.140;-75.616;2023-02-28T02:49:58;99714.84;;;-5.04
74915;BMP280;63475;45.140;-75.616;2023-02-28T02:51:10;99742.34;;;-4.91
74915;BMP280;63475;45.140;-75.616;2023-02-28T02:52:14;99756.44;;;-4.89
74915;BMP280;63475;45.140;-75.616;2023-02-28T02:53:21;99749.50;;;-4.97
74915;BMP280;63475;45.140;-75.616;2023-02-28T02:54:29;99743.56;;;-4.97
74915;BMP280;63475;45.140;-75.616;2023-02-28T02:55:34;99753.25;;;-4.85
74915;BMP280;63475;45.140;-75.616;2023-02-28T02:56:39;99751.28;;;-4.89
74915;BMP280;63475;45.140;-75.616;2023-02-28T02:57:52;99754.63;;;-4.88
74915;BMP280;63475;45.140;-75.616;2023-02-28T02:58:58;99715.97;;;-5.14
74915;BMP280;63475;45.140;-75.616;2023-02-28T03:00:05;99757.97;;;-4.88
74915;BMP280;63475;45.140;-75.616;2023-02-28T03:01:14;99740.06;;;-5.01
74915;BMP280;63475;45.140;-75.616;2023-02-28T03:02:17;99758.59;;;-4.91
74915;BMP280;63475;45.140;-75.616;2023-02-28T03:03:19;99749.03;;;-4.90
74915;BMP280;63475;45.140;-75.616;2023-02-28T03:04:33;99752.34;;;-4.90
74915;BMP280;63475;45.140;-75.616;2023-02-28T03:05:48;99748.25;;;-4.91
74915;BMP280;63475;45.140;-75.616;2023-02-28T03:06:50;99735.19;;;-5.03
74915;BMP280;63475;45.140;-75.616;2023-02-28T03:07:55;99737.94;;;-4.91
74915;BMP280;63475;45.140;-75.616;2023-02-28T03:08:56;99715.16;;;-5.06
74915;BMP280;63475;45.140;-75.616;2023-02-28T03:09:57;99735.03;;;-4.89
74915;BMP280;63475;45.140;-75.616;2023-02-28T03:11:01;99729.41;;;-5.00
74915;BMP280;63475;45.140;-75.616;2023-02-28T03:12:03;99723.34;;;-5.04
74915;BMP280;63475;45.140;-75.616;2023-02-28T03:14:28;99751.56;;;-4.81
74915;BMP280;63475;45.140;-75.616;2023-02-28T03:15:46;99743.81;;;-4.81
74915;BMP280;63475;45.140;-75.616;2023-02-28T03:19:52;99749.16;;;-4.87
74915;BMP280;63475;45.140;-75.616;2023-02-28T03:22:40;99753.25;;;-4.85
74915;BMP280;63475;45.140;-75.616;2023-02-28T03:25:23;99746.63;;;-4.95
74915;BMP280;63475;45.140;-75.616;2023-02-28T03:26:27;99712.50;;;-5.18
74915;BMP280;63475;45.140;-75.616;2023-02-28T03:27:31;99738.41;;;-5.06
74915;BMP280;63475;45.140;-75.616;2023-02-28T03:28:59;99752.81;;;-4.88
74915;BMP280;63475;45.140;-75.616;2023-02-28T03:30:24;99740.34;;;-5.03
74915;BMP280;63475;45.140;-75.616;2023-02-28T03:31:38;99723.22;;;-5.07
74915;BMP280;63475;45.140;-75.616;2023-02-28T03:32:53;99744.63;;;-4.90
74915;BMP280;63475;45.140;-75.616;2023-02-28T03:35:15;99751.28;;;-4.89
74915;BMP280;63475;45.140;-75.616;2023-02-28T03:36:28;99756.16;;;-4.87
74915;BMP280;63475;45.140;-75.616;2023-02-28T03:37:31;99731.84;;;-5.03
74915;BMP280;63475;45.140;-75.616;2023-02-28T03:38:49;99753.72;;;-4.92
74915;BMP280;63475;45.140;-75.616;2023-02-28T03:40:00;99756.91;;;-4.87
74915;BMP280;63475;45.140;-75.616;2023-02-28T03:42:42;99746.88;;;-4.88
74915;BMP280;63475;45.140;-75.616;2023-02-28T03:43:53;99722.59;;;-5.04
74915;BMP280;63475;45.140;-75.616;2023-02-28T03:45:00;99740.97;;;-4.89
74915;BMP280;63475;45.140;-75.616;2023-02-28T03:46:08;99719.09;;;-5.00
74915;BMP280;63475;45.140;-75.616;2023-02-28T03:47:17;99696.03;;;-5.05
74915;BMP280;63475;45.140;-75.616;2023-02-28T03:48:32;99720.31;;;-4.89
74915;BMP280;63475;45.140;-75.616;2023-02-28T03:50:58;99699.78;;;-4.85
74915;BMP280;63475;45.140;-75.616;2023-02-28T03:52:03;99691.72;;;-4.83
74915;BMP280;63475;45.140;-75.616;2023-02-28T03:53:07;99691.16;;;-4.89
74915;BMP280;63475;45.140;-75.616;2023-02-28T03:54:12;99684.91;;;-4.88
74915;BMP280;63475;45.140;-75.616;2023-02-28T03:55:15;99670.66;;;-4.94
74915;BMP280;63475;45.140;-75.616;2023-02-28T03:56:20;99681.25;;;-4.87
74915;BMP280;63475;45.140;-75.616;2023-02-28T03:57:37;99684.91;;;-4.88
74915;BMP280;63475;45.140;-75.616;2023-02-28T04:00:29;99672.63;;;-5.00
74915;BMP280;63475;45.140;-75.616;2023-02-28T04:01:41;99693.59;;;-4.93
74915;BMP280;63475;45.140;-75.616;2023-02-28T04:02:43;99682.38;;;-4.97
74915;BMP280;63475;45.140;-75.616;2023-02-28T04:03:44;99670.81;;;-4.91
74915;BMP280;63475;45.140;-75.616;2023-02-28T04:04:45;99667.28;;;-4.86
74915;BMP280;63475;45.140;-75.616;2023-02-28T04:05:52;99637.91;;;-5.11
74915;BMP280;63475;45.140;-75.616;2023-02-28T04:07:05;99664.88;;;-4.91
74915;BMP280;63475;45.140;-75.616;2023-02-28T04:08:07;99663.06;;;-4.91
74915;BMP280;63475;45.140;-75.616;2023-02-28T04:09:11;99654.25;;;-4.90
74915;BMP280;63475;45.140;-75.616;2023-02-28T04:10:13;99650.78;;;-4.94
74915;BMP280;63475;45.140;-75.616;2023-02-28T04:11:37;99632.25;;;-4.96
74915;BMP280;63475;45.140;-75.616;2023-02-28T04:12:39;99626.47;;;-4.93
74915;BMP280;63475;45.140;-75.616;2023-02-28T04:13:40;99594.78;;;-5.10
74915;BMP280;63475;45.140;-75.616;2023-02-28T04:14:41;99610.09;;;-4.97
74915;BMP280;63475;45.140;-75.616;2023-02-28T04:15:42;99614.63;;;-4.94
74915;BMP280;63475;45.140;-75.616;2023-02-28T04:16:43;99627.22;;;-4.92
74915;BMP280;63475;45.140;-75.616;2023-02-28T04:17:44;99620.22;;;-4.92
74915;BMP280;63475;45.140;-75.616;2023-02-28T04:18:45;99617.38;;;-4.99
74915;BMP280;63475;45.140;-75.616;2023-02-28T04:19:46;99629.81;;;-4.92
74915;BMP280;63475;45.140;-75.616;2023-02-28T04:20:47;99643.03;;;-4.94
74915;BMP280;63475;45.140;-75.616;2023-02-28T04:21:50;99621.78;;;-5.08
74915;BMP280;63475;45.140;-75.616;2023-02-28T04:22:51;99636.19;;;-4.98
74915;BMP280;63475;45.140;-75.616;2023-02-28T04:23:52;99639.81;;;-4.99
74915;BMP280;63475;45.140;-75.616;2023-02-28T04:24:53;99631.78;;;-4.98
74915;BMP280;63475;45.140;-75.616;2023-02-28T04:25:55;99632.25;;;-4.96
74915;BMP280;63475;45.140;-75.616;2023-02-28T04:26:57;99632.53;;;-4.97
74915;BMP280;63475;45.140;-75.616;2023-02-28T04:27:58;99638.00;;;-4.99
74915;BMP280;63475;45.140;-75.616;2023-02-28T04:29:00;99628.44;;;-4.98
74915;BMP280;63475;45.140;-75.616;2023-02-28T04:30:01;99631.63;;;-4.93
74915;BMP280;63475;45.140;-75.616;2023-02-28T04:31:04;99618.88;;;-4.98
74915;BMP280;63475;45.140;-75.616;2023-02-28T04:32:05;99619.63;;;-4.97
74915;BMP280;63475;45.140;-75.616;2023-02-28T04:33:06;99602.53;;;-5.10
74915;BMP280;63475;45.140;-75.616;2023-02-28T04:34:07;99616.31;;;-5.06
74915;BMP280;63475;45.140;-75.616;2023-02-28T04:35:08;99616.13;;;-5.01
74915;BMP280;63475;45.140;-75.616;2023-02-28T04:36:09;99606.31;;;-5.08
74915;BMP280;63475;45.140;-75.616;2023-02-28T04:37:10;99613.25;;;-5.00
74915;BMP280;63475;45.140;-75.616;2023-02-28T04:38:11;99606.00;;;-5.06
74915;BMP280;63475;45.140;-75.616;2023-02-28T04:39:12;99609.81;;;-5.12
74915;BMP280;63475;45.140;-75.616;2023-02-28T04:40:13;99611.97;;;-5.14
74915;BMP280;63475;45.140;-75.616;2023-02-28T04:41:14;99586.50;;;-5.33
74915;BMP280;63475;45.140;-75.616;2023-02-28T04:42:15;99600.56;;;-5.13
74915;BMP280;63475;45.140;-75.616;2023-02-28T04:43:16;99603.59;;;-5.11
74915;BMP280;63475;45.140;-75.616;2023-02-28T04:44:17;99615.56;;;-5.07
74915;BMP280;63475;45.140;-75.616;2023-02-28T04:45:18;99578.63;;;-5.28
74915;BMP280;63475;45.140;-75.616;2023-02-28T04:46:19;99615.25;;;-5.05
74915;BMP280;63475;45.140;-75.616;2023-02-28T04:47:21;99615.38;;;-5.02
74915;BMP280;63475;45.140;-75.616;2023-02-28T04:48:29;99607.38;;;-5.09
74915;BMP280;63475;45.140;-75.616;2023-02-28T04:49:30;99519.31;;;-5.66
74915;BMP280;63475;45.140;-75.616;2023-02-28T04:50:31;99610.22;;;-5.02
74915;BMP280;63475;45.140;-75.616;2023-02-28T04:51:32;99605.25;;;-5.07
74915;BMP280;63475;45.140;-75.616;2023-02-28T04:52:33;99608.25;;;-5.05
74915;BMP280;63475;45.140;-75.616;2023-02-28T04:53:36;99609.78;;;-5.04
74915;BMP280;63475;45.140;-75.616;2023-02-28T04:54:37;99609.38;;;-5.14
74915;BMP280;63475;45.140;-75.616;2023-02-28T04:55:39;99601.97;;;-5.16
74915;BMP280;63475;45.140;-75.616;2023-02-28T04:56:40;99581.81;;;-5.23
74915;BMP280;63475;45.140;-75.616;2023-02-28T04:57:41;99602.97;;;-5.08
74915;BMP280;63475;45.140;-75.616;2023-02-28T04:58:43;99596.09;;;-5.04
74915;BMP280;63475;45.140;-75.616;2023-02-28T04:59:44;99598.69;;;-5.04
74915;BMP280;63475;45.140;-75.616;2023-02-28T05:00:45;99594.03;;;-5.11
74915;BMP280;63475;45.140;-75.616;2023-02-28T05:01:47;99604.47;;;-5.07
74915;BMP280;63475;45.140;-75.616;2023-02-28T05:02:48;99602.78;;;-5.03
74915;BMP280;63475;45.140;-75.616;2023-02-28T05:03:50;99609.78;;;-5.04
74915;BMP280;63475;45.140;-75.616;2023-02-28T05:04:51;99600.97;;;-5.03
74915;BMP280;63475;45.140;-75.616;2023-02-28T05:05:52;99601.28;;;-5.04
74915;BMP280;63475;45.140;-75.616;2023-02-28T05:06:53;99602.22;;;-5.09
74915;BMP280;63475;45.140;-75.616;2023-02-28T05:07:55;99604.66;;;-5.12
74915;BMP280;63475;45.140;-75.616;2023-02-28T05:08:56;99599.94;;;-5.10
74915;BMP280;63475;45.140;-75.616;2023-02-28T05:09:57;99603.72;;;-5.08
74915;BMP280;63475;45.140;-75.616;2023-02-28T05:10:58;99591.75;;;-5.12
74915;BMP280;63475;45.140;-75.616;2023-02-28T05:12:01;99599.50;;;-5.12
74915;BMP280;63475;45.140;-75.616;2023-02-28T05:13:02;99576.03;;;-5.20
74915;BMP280;63475;45.140;-75.616;2023-02-28T05:14:11;99611.16;;;-5.06
74915;BMP280;63475;45.140;-75.616;2023-02-28T05:15:13;99609.66;;;-5.07
74915;BMP280;63475;45.140;-75.616;2023-02-28T05:16:14;99604.94;;;-5.05
74915;BMP280;63475;45.140;-75.616;2023-02-28T05:17:16;99589.38;;;-5.18
74915;BMP280;63475;45.140;-75.616;2023-02-28T05:18:17;99609.47;;;-5.02
74915;BMP280;63475;45.140;-75.616;2023-02-28T05:19:18;99578.91;;;-5.21
74915;BMP280;63475;45.140;-75.616;2023-02-28T05:20:21;99608.13;;;-5.08
74915;BMP280;63475;45.140;-75.616;2023-02-28T05:21:33;99605.88;;;-5.10
74915;BMP280;63475;45.140;-75.616;2023-02-28T05:22:34;99576.81;;;-5.28
74915;BMP280;63475;45.140;-75.616;2023-02-28T05:23:35;99602.97;;;-5.08
74915;BMP280;63475;45.140;-75.616;2023-02-28T05:24:36;99592.25;;;-5.19
74915;BMP280;63475;45.140;-75.616;2023-02-28T05:25:37;99599.50;;;-5.12
74915;BMP280;63475;45.140;-75.616;2023-02-28T05:26:40;99595.41;;;-5.13
74915;BMP280;63475;45.140;-75.616;2023-02-28T05:27:41;99601.34;;;-5.13
74915;BMP280;63475;45.140;-75.616;2023-02-28T05:28:42;99603.09;;;-5.05
74915;BMP280;63475;45.140;-75.616;2023-02-28T05:29:43;99604.63;;;-5.04
74915;BMP280;63475;45.140;-75.616;2023-02-28T05:30:44;99594.22;;;-5.16
74915;BMP280;63475;45.140;-75.616;2023-02-28T05:31:45;99608.25;;;-5.05
74915;BMP280;63475;45.140;-75.616;2023-02-28T05:32:50;99605.88;;;-5.10
74915;BMP280;63475;45.140;-75.616;2023-02-28T05:33:52;99612.84;;;-5.10
74915;BMP280;63475;45.140;-75.616;2023-02-28T05:34:53;99609.97;;;-5.09
74915;BMP280;63475;45.140;-75.616;2023-02-28T05:35:54;99602.28;;;-5.18
74915;BMP280;63475;45.140;-75.616;2023-02-28T05:36:54;99609.66;;;-5.07
74915;BMP280;63475;45.140;-75.616;2023-02-28T05:37:55;99614.81;;;-5.07
74915;BMP280;63475;45.140;-75.616;2023-02-28T05:38:56;99615.13;;;-5.09
74915;BMP280;63475;45.140;-75.616;2023-02-28T05:39:57;99615.56;;;-5.07
74915;BMP280;63475;45.140;-75.616;2023-02-28T05:40:58;99614.56;;;-5.14
74915;BMP280;63475;45.140;-75.616;2023-02-28T05:41:59;99594.72;;;-5.23
74915;BMP280;63475;45.140;-75.616;2023-02-28T05:43:00;99573.78;;;-5.38
74915;BMP280;63475;45.140;-75.616;2023-02-28T05:44:01;99610.16;;;-5.14
74915;BMP280;63475;45.140;-75.616;2023-02-28T05:45:03;99607.13;;;-5.16
74915;BMP280;63475;45.140;-75.616;2023-02-28T05:46:09;99613.59;;;-5.10
74915;BMP280;63475;45.140;-75.616;2023-02-28T05:47:10;99597.41;;;-5.19
74915;BMP280;63475;45.140;-75.616;2023-02-28T05:48:13;99614.06;;;-5.08
74915;BMP280;63475;45.140;-75.616;2023-02-28T05:49:14;99604.97;;;-5.14
74915;BMP280;63475;45.140;-75.616;2023-02-28T05:50:15;99593.59;;;-5.13
74915;BMP280;63475;45.140;-75.616;2023-02-28T05:51:16;99585.41;;;-5.15
74915;BMP280;63475;45.140;-75.616;2023-02-28T05:52:18;99586.03;;;-5.18
74915;BMP280;63475;45.140;-75.616;2023-02-28T05:53:18;99529.97;;;-5.47
74915;BMP280;63475;45.140;-75.616;2023-02-28T05:54:19;99585.28;;;-5.19
74915;BMP280;63475;45.140;-75.616;2023-02-28T05:55:20;99583.56;;;-5.14
74915;BMP280;63475;45.140;-75.616;2023-02-28T05:56:21;99582.63;;;-5.10
74915;BMP280;63475;45.140;-75.616;2023-02-28T05:57:23;99556.16;;;-5.28
74915;BMP280;63475;45.140;-75.616;2023-02-28T05:58:24;99553.16;;;-5.38
74915;BMP280;63475;45.140;-75.616;2023-02-28T05:59:31;99589.06;;;-5.16
74915;BMP280;63475;45.140;-75.616;2023-02-28T06:00:32;99583.44;;;-5.18
74915;BMP280;63475;45.140;-75.616;2023-02-28T06:01:43;99566.78;;;-5.29
74915;BMP280;63475;45.140;-75.616;2023-02-28T06:02:50;99576.66;;;-5.23
74915;BMP280;63475;45.140;-75.616;2023-02-28T06:03:53;99584.38;;;-5.23
74915;BMP280;63475;45.140;-75.616;2023-02-28T06:04:54;99566.31;;;-5.23
74915;BMP280;63475;45.140;-75.616;2023-02-28T06:05:55;99574.63;;;-5.17
74915;BMP280;63475;45.140;-75.616;2023-02-28T06:06:56;99566.16;;;-5.26
74915;BMP280;63475;45.140;-75.616;2023-02-28T06:07:57;99572.38;;;-5.19
74915;BMP280;63475;45.140;-75.616;2023-02-28T06:08:58;99562.94;;;-5.14
74915;BMP280;63475;45.140;-75.616;2023-02-28T06:09:59;99567.78;;;-5.13
74915;BMP280;63475;45.140;-75.616;2023-02-28T06:11:03;99541.91;;;-5.34
74915;BMP280;63475;45.140;-75.616;2023-02-28T06:12:05;99562.19;;;-5.15
74915;BMP280;63475;45.140;-75.616;2023-02-28T06:13:07;99542.34;;;-5.23
74915;BMP280;63475;45.140;-75.616;2023-02-28T06:14:14;99544.53;;;-5.13
74915;BMP280;63475;45.140;-75.616;2023-02-28T06:15:16;99554.88;;;-5.13
74915;BMP280;63475;45.140;-75.616;2023-02-28T06:16:17;99555.75;;;-5.09
74915;BMP280;63475;45.140;-75.616;2023-02-28T06:17:18;99553.38;;;-5.14
74915;BMP280;63475;45.140;-75.616;2023-02-28T06:18:19;99555.19;;;-5.14
74915;BMP280;63475;45.140;-75.616;2023-02-28T06:19:19;99544.63;;;-5.30
74915;BMP280;63475;45.140;-75.616;2023-02-28T06:20:23;99562.50;;;-5.25
74915;BMP280;63475;45.140;-75.616;2023-02-28T06:21:25;99504.09;;;-5.59
74915;BMP280;63475;45.140;-75.616;2023-02-28T06:22:27;99557.63;;;-5.18
74915;BMP280;63475;45.140;-75.616;2023-02-28T06:23:28;99552.19;;;-5.25
74915;BMP280;63475;45.140;-75.616;2023-02-28T06:24:29;99546.69;;;-5.15
74915;BMP280;63475;45.140;-75.616;2023-02-28T06:25:31;99546.19;;;-5.08
74915;BMP280;63475;45.140;-75.616;2023-02-28T06:26:32;99556.19;;;-5.07
74915;BMP280;63475;45.140;-75.616;2023-02-28T06:27:34;99530.94;;;-5.22
74915;BMP280;63475;45.140;-75.616;2023-02-28T06:28:35;99539.38;;;-5.13
74915;BMP280;63475;45.140;-75.616;2023-02-28T06:29:36;99529.88;;;-5.21
74915;BMP280;63475;45.140;-75.616;2023-02-28T06:30:40;99541.34;;;-5.10
74915;BMP280;63475;45.140;-75.616;2023-02-28T06:31:41;99539.38;;;-5.13
74915;BMP280;63475;45.140;-75.616;2023-02-28T06:32:41;99535.28;;;-5.14
74915;BMP280;63475;45.140;-75.616;2023-02-28T06:33:44;99531.19;;;-5.15